createdAt,value
2017-07-25T00:00:36.865Z,24.20
2017-07-25T00:03:04.323Z,24.20
2017-07-25T00:05:31.784Z,24.20
2017-07-25T00:07:59.266Z,24.10
2017-07-25T00:10:26.737Z,24.20
2017-07-25T00:12:54.210Z,24.10
2017-07-25T00:15:21.678Z,24.20
2017-07-25T00:17:49.169Z,24.10
2017-07-25T00:20:16.613Z,24.10
2017-07-25T00:22:44.117Z,24.10
2017-07-25T00:25:11.562Z,24.10
2017-07-25T00:27:39.021Z,24.10
2017-07-25T00:30:06.489Z,24.10
2017-07-25T00:32:33.949Z,24.10
2017-07-25T00:35:01.455Z,24.10
2017-07-25T00:37:28.952Z,24.10
2017-07-25T00:39:56.465Z,24.10
2017-07-25T00:42:23.919Z,24.10
2017-07-25T00:44:51.408Z,24.00
2017-07-25T00:47:18.902Z,24.00
2017-07-25T00:49:46.406Z,24.00
2017-07-25T00:52:13.862Z,24.00
2017-07-25T00:54:41.357Z,24.00
2017-07-25T00:57:08.834Z,24.00
2017-07-25T00:59:37.057Z,24.00
2017-07-25T01:02:04.621Z,24.00
2017-07-25T01:04:32.383Z,24.00
2017-07-25T01:07:00.678Z,23.90
2017-07-25T01:09:28.193Z,23.90
2017-07-25T01:11:55.661Z,23.90
2017-07-25T01:14:23.169Z,24.00
2017-07-25T01:16:50.670Z,23.90
2017-07-25T01:19:18.138Z,23.90
2017-07-25T01:21:45.597Z,23.90
2017-07-25T01:24:13.089Z,23.90
2017-07-25T01:26:40.561Z,23.90
2017-07-25T01:29:08.051Z,23.90
2017-07-25T01:31:35.532Z,23.90
2017-07-25T01:34:03.025Z,23.90
2017-07-25T01:36:30.506Z,23.90
2017-07-25T01:38:57.999Z,23.90
2017-07-25T01:41:25.472Z,23.90
2017-07-25T01:43:52.960Z,23.90
2017-07-25T01:46:20.440Z,23.90
2017-07-25T01:48:47.909Z,23.80
2017-07-25T01:51:15.462Z,23.80
2017-07-25T01:53:42.947Z,23.80
2017-07-25T01:56:10.418Z,23.80
2017-07-25T01:58:37.873Z,23.80
2017-07-25T02:01:05.352Z,23.80
2017-07-25T02:03:32.807Z,23.80
2017-07-25T02:06:00.273Z,23.80
2017-07-25T02:08:27.779Z,23.80
2017-07-25T02:10:55.262Z,23.80
2017-07-25T02:13:22.734Z,23.80
2017-07-25T02:15:50.220Z,23.80
2017-07-25T02:18:17.678Z,23.80
2017-07-25T02:20:45.184Z,23.70
2017-07-25T02:23:12.679Z,23.80
2017-07-25T02:25:40.165Z,23.70
2017-07-25T02:28:07.622Z,23.70
2017-07-25T02:30:35.898Z,23.70
2017-07-25T02:33:03.357Z,23.70
2017-07-25T02:35:31.606Z,23.70
2017-07-25T02:37:59.087Z,23.70
2017-07-25T02:40:26.547Z,23.70
2017-07-25T02:42:54.075Z,23.70
2017-07-25T02:45:21.554Z,23.70
2017-07-25T02:47:49.065Z,23.70
2017-07-25T02:50:16.568Z,23.70
2017-07-25T02:52:44.081Z,23.70
2017-07-25T02:55:11.562Z,23.70
2017-07-25T02:57:39.059Z,23.70
2017-07-25T03:00:07.283Z,23.60
2017-07-25T03:02:34.797Z,23.60
2017-07-25T03:05:03.017Z,23.60
2017-07-25T03:07:30.501Z,23.60
2017-07-25T03:09:57.974Z,23.60
2017-07-25T03:12:25.517Z,23.60
2017-07-25T03:14:52.993Z,23.60
2017-07-25T03:17:20.459Z,23.60
2017-07-25T03:19:47.934Z,23.60
2017-07-25T03:22:15.407Z,23.60
2017-07-25T03:24:42.898Z,23.60
2017-07-25T03:27:10.381Z,23.60
2017-07-25T03:29:37.859Z,23.60
2017-07-25T03:32:05.323Z,23.50
2017-07-25T03:34:32.799Z,23.50
2017-07-25T03:37:00.262Z,23.60
2017-07-25T03:39:27.749Z,23.50
2017-07-25T03:41:55.424Z,23.50
2017-07-25T03:44:22.894Z,23.50
2017-07-25T03:46:50.367Z,23.50
2017-07-25T03:49:17.855Z,23.50
2017-07-25T03:51:45.530Z,23.50
2017-07-25T03:54:13.006Z,23.50
2017-07-25T03:56:40.473Z,23.50
2017-07-25T03:59:07.956Z,23.50
2017-07-25T04:01:35.449Z,23.50
2017-07-25T04:04:03.063Z,23.50
2017-07-25T04:06:30.538Z,23.50
2017-07-25T04:08:58.001Z,23.50
2017-07-25T04:11:25.470Z,23.50
2017-07-25T04:13:52.946Z,23.50
2017-07-25T04:16:20.606Z,23.50
2017-07-25T04:18:48.086Z,23.50
2017-07-25T04:21:15.581Z,23.50
2017-07-25T04:23:43.046Z,23.50
2017-07-25T04:26:10.507Z,23.50
2017-07-25T04:28:37.967Z,23.50
2017-07-25T04:31:05.421Z,23.50
2017-07-25T04:33:32.900Z,23.50
2017-07-25T04:36:00.364Z,23.50
2017-07-25T04:38:27.837Z,23.50
2017-07-25T04:40:55.298Z,23.50
2017-07-25T04:43:22.779Z,23.50
2017-07-25T04:45:50.234Z,23.50
2017-07-25T04:48:17.758Z,23.50
2017-07-25T04:50:45.209Z,23.50
2017-07-25T04:53:12.670Z,23.50
2017-07-25T04:55:40.168Z,23.50
2017-07-25T04:58:07.626Z,23.50
2017-07-25T05:00:35.086Z,23.50
2017-07-25T05:03:02.549Z,23.50
2017-07-25T05:05:30.016Z,23.50
2017-07-25T05:07:58.249Z,23.50
2017-07-25T05:10:25.744Z,23.50
2017-07-25T05:12:54.009Z,23.50
2017-07-25T05:15:21.467Z,23.50
2017-07-25T05:17:48.949Z,23.50
2017-07-25T05:20:16.433Z,23.50
2017-07-25T05:22:43.918Z,23.50
2017-07-25T05:25:11.374Z,23.50
2017-07-25T05:27:38.859Z,23.50
2017-07-25T05:30:06.314Z,23.50
2017-07-25T05:32:33.797Z,23.60
2017-07-25T05:35:01.268Z,23.50
2017-07-25T05:37:28.746Z,23.60
2017-07-25T05:39:56.244Z,23.60
2017-07-25T05:42:23.743Z,23.60
2017-07-25T05:44:51.207Z,23.60
2017-07-25T05:47:18.681Z,23.60
2017-07-25T05:49:46.142Z,23.60
2017-07-25T05:52:13.623Z,23.60
2017-07-25T05:54:41.101Z,23.60
2017-07-25T05:57:08.586Z,23.60
2017-07-25T05:59:36.053Z,23.60
2017-07-25T06:02:03.509Z,23.60
2017-07-25T06:04:30.998Z,23.60
2017-07-25T06:06:58.471Z,23.70
2017-07-25T06:09:25.937Z,23.70
2017-07-25T06:11:54.167Z,23.70
2017-07-25T06:14:21.652Z,23.70
2017-07-25T06:16:49.106Z,23.70
2017-07-25T06:19:16.562Z,23.70
2017-07-25T06:21:44.031Z,23.70
2017-07-25T06:24:12.297Z,23.70
2017-07-25T06:26:39.805Z,23.70
2017-07-25T06:29:07.269Z,23.70
2017-07-25T06:31:34.754Z,23.70
2017-07-25T06:34:02.241Z,23.70
2017-07-25T06:36:29.721Z,23.70
2017-07-25T06:38:57.188Z,23.70
2017-07-25T06:41:24.673Z,23.70
2017-07-25T06:43:52.138Z,23.70
2017-07-25T06:46:19.616Z,23.70
2017-07-25T06:48:47.087Z,23.70
2017-07-25T06:51:14.572Z,23.70
2017-07-25T06:53:42.036Z,23.70
2017-07-25T06:56:09.488Z,23.70
2017-07-25T06:58:37.004Z,23.80
2017-07-25T07:01:04.479Z,23.80
2017-07-25T07:03:31.966Z,23.80
2017-07-25T07:05:59.418Z,23.90
2017-07-25T07:08:26.903Z,23.90
2017-07-25T07:10:54.382Z,24.00
2017-07-25T07:13:21.845Z,24.00
2017-07-25T07:15:49.318Z,24.00
2017-07-25T07:18:16.786Z,24.10
2017-07-25T07:20:44.254Z,24.10
2017-07-25T07:23:12.483Z,24.20
2017-07-25T07:25:39.979Z,24.10
2017-07-25T07:28:07.462Z,24.20
2017-07-25T07:30:34.961Z,24.20
2017-07-25T07:33:02.435Z,24.20
2017-07-25T07:35:29.913Z,24.20
2017-07-25T07:37:58.139Z,24.20
2017-07-25T07:40:25.601Z,24.20
2017-07-25T07:42:53.089Z,24.20
2017-07-25T07:45:20.570Z,24.20
2017-07-25T07:47:48.043Z,24.20
2017-07-25T07:50:15.517Z,24.20
2017-07-25T07:52:42.976Z,24.20
2017-07-25T07:55:10.447Z,24.20
2017-07-25T07:57:37.912Z,24.20
2017-07-25T08:00:05.375Z,24.30
2017-07-25T08:02:32.848Z,24.30
2017-07-25T08:05:00.311Z,24.30
2017-07-25T08:07:27.797Z,24.40
2017-07-25T08:09:55.277Z,24.40
2017-07-25T08:12:22.746Z,24.50
2017-07-25T08:14:50.240Z,24.50
2017-07-25T08:17:17.710Z,24.50
2017-07-25T08:19:45.945Z,24.50
2017-07-25T08:22:13.399Z,24.50
2017-07-25T08:24:41.053Z,24.50
2017-07-25T08:27:08.517Z,24.50
2017-07-25T08:29:35.994Z,24.50
2017-07-25T08:32:03.470Z,24.40
2017-07-25T08:34:30.952Z,24.40
2017-07-25T08:36:58.419Z,24.40
2017-07-25T08:39:25.890Z,24.40
2017-07-25T08:41:53.374Z,24.40
2017-07-25T08:44:20.855Z,24.40
2017-07-25T08:46:48.323Z,24.50
2017-07-25T08:49:16.582Z,24.50
2017-07-25T08:51:44.050Z,24.50
2017-07-25T08:54:11.510Z,24.50
2017-07-25T08:56:38.992Z,24.50
2017-07-25T08:59:06.493Z,24.60
2017-07-25T09:01:33.933Z,24.70
2017-07-25T09:04:01.391Z,24.70
2017-07-25T09:06:28.859Z,24.80
2017-07-25T09:08:56.495Z,24.90
2017-07-25T09:11:23.986Z,24.90
2017-07-25T09:13:51.446Z,25.00
2017-07-25T09:16:18.908Z,25.10
2017-07-25T09:18:46.370Z,25.10
2017-07-25T09:21:13.830Z,25.20
2017-07-25T09:23:55.740Z,25.20
2017-07-25T09:26:23.209Z,25.30
2017-07-25T09:28:50.683Z,25.40
2017-07-25T09:31:18.155Z,25.40
2017-07-25T09:33:45.637Z,25.40
2017-07-25T09:36:13.107Z,25.50
2017-07-25T09:38:40.571Z,25.50
2017-07-25T09:41:08.026Z,25.50
2017-07-25T09:43:35.512Z,25.60
2017-07-25T09:46:02.966Z,25.60
2017-07-25T09:48:31.213Z,25.70
2017-07-25T09:50:58.683Z,25.70
2017-07-25T09:53:26.149Z,25.70
2017-07-25T09:55:54.388Z,25.90
2017-07-25T09:58:21.861Z,25.90
2017-07-25T10:00:49.334Z,26.00
2017-07-25T10:03:16.799Z,26.20
2017-07-25T10:05:44.258Z,26.20
2017-07-25T10:08:11.719Z,26.40
2017-07-25T10:10:39.196Z,26.50
2017-07-25T10:13:06.662Z,26.50
2017-07-25T10:15:34.149Z,26.60
2017-07-25T10:18:01.609Z,26.60
2017-07-25T10:20:29.077Z,26.70
2017-07-25T10:22:56.582Z,26.70
2017-07-25T10:25:24.069Z,26.80
2017-07-25T10:27:51.543Z,27.00
2017-07-25T10:30:19.014Z,27.00
2017-07-25T10:32:46.478Z,27.10
2017-07-25T10:35:13.941Z,27.30
2017-07-25T10:37:41.412Z,27.40
2017-07-25T10:40:08.892Z,27.50
2017-07-25T10:42:36.470Z,27.50
2017-07-25T10:45:03.954Z,27.60
2017-07-25T10:47:31.427Z,27.70
2017-07-25T10:49:59.052Z,27.70
2017-07-25T10:52:26.533Z,27.80
2017-07-25T10:54:54.003Z,27.80
2017-07-25T10:57:21.466Z,27.90
2017-07-25T10:59:48.940Z,27.90
2017-07-25T11:02:17.199Z,27.80
2017-07-25T11:04:44.668Z,27.80
2017-07-25T11:07:12.122Z,27.70
2017-07-25T11:09:40.560Z,27.40
2017-07-25T11:12:08.019Z,27.40
2017-07-25T11:14:35.487Z,27.30
2017-07-25T11:17:02.977Z,27.20
2017-07-25T11:19:30.436Z,27.00
2017-07-25T11:21:57.901Z,27.00
2017-07-25T11:24:25.375Z,26.90
2017-07-25T11:26:52.839Z,26.80
2017-07-25T11:29:20.319Z,26.80
2017-07-25T11:31:47.782Z,26.70
2017-07-25T11:34:15.283Z,26.70
2017-07-25T11:36:42.743Z,26.70
2017-07-25T11:39:10.216Z,26.60
2017-07-25T11:41:37.702Z,26.70
2017-07-25T11:44:05.166Z,26.70
2017-07-25T11:46:32.622Z,26.70
2017-07-25T11:49:00.085Z,26.70
2017-07-25T11:51:27.542Z,26.80
2017-07-25T11:53:54.996Z,26.80
2017-07-25T11:56:22.481Z,26.90
2017-07-25T11:58:49.941Z,26.90
2017-07-25T12:01:17.407Z,27.00
2017-07-25T12:03:44.871Z,27.20
2017-07-25T12:06:12.391Z,27.20
2017-07-25T12:08:39.893Z,27.20
2017-07-25T12:11:08.206Z,27.10
2017-07-25T12:13:35.700Z,27.10
2017-07-25T12:16:03.158Z,27.00
2017-07-25T12:18:30.757Z,27.00
2017-07-25T12:21:22.629Z,26.90
2017-07-25T12:23:50.104Z,26.80
2017-07-25T12:26:17.568Z,26.80
2017-07-25T12:28:45.066Z,26.80
2017-07-25T12:31:12.526Z,26.80
2017-07-25T12:33:39.996Z,26.80
2017-07-25T12:36:07.454Z,26.70
2017-07-25T12:38:34.926Z,26.70
2017-07-25T12:41:02.456Z,26.70
2017-07-25T12:43:29.924Z,26.70
2017-07-25T12:45:57.393Z,26.70
2017-07-25T12:48:24.924Z,26.60
2017-07-25T12:50:52.390Z,26.60
2017-07-25T12:53:19.869Z,26.60
2017-07-25T12:55:47.373Z,26.70
2017-07-25T12:58:14.845Z,26.80
2017-07-25T13:00:54.017Z,26.90
2017-07-25T13:03:28.245Z,27.00
2017-07-25T13:05:55.702Z,27.10
2017-07-25T13:08:23.166Z,27.20
2017-07-25T13:10:50.651Z,27.20
2017-07-25T13:13:18.118Z,27.20
2017-07-25T13:15:46.353Z,27.10
2017-07-25T13:18:13.813Z,27.10
2017-07-25T13:20:41.283Z,27.10
2017-07-25T13:23:08.748Z,27.10
2017-07-25T13:25:36.243Z,27.10
2017-07-25T13:28:03.708Z,27.10
2017-07-25T13:30:31.183Z,27.10
2017-07-25T13:32:58.667Z,27.10
2017-07-25T13:35:26.150Z,27.10
2017-07-25T13:37:53.602Z,27.00
2017-07-25T13:40:21.831Z,26.90
2017-07-25T13:42:49.308Z,26.80
2017-07-25T13:45:16.773Z,26.80
2017-07-25T13:47:44.255Z,26.70
2017-07-25T13:50:11.719Z,26.70
2017-07-25T13:52:39.201Z,26.80
2017-07-25T13:55:06.662Z,26.70
2017-07-25T13:57:34.165Z,26.70
2017-07-25T14:00:01.633Z,26.60
2017-07-25T14:02:29.098Z,26.60
2017-07-25T14:04:56.599Z,26.50
2017-07-25T14:07:24.192Z,26.50
2017-07-25T14:09:51.639Z,26.40
2017-07-25T14:12:19.118Z,26.40
2017-07-25T14:14:46.623Z,26.40
2017-07-25T14:17:14.078Z,26.40
2017-07-25T14:19:41.548Z,26.50
2017-07-25T14:22:09.010Z,26.50
2017-07-25T14:24:36.484Z,26.50
2017-07-25T14:27:03.947Z,26.50
2017-07-25T14:29:31.426Z,26.50
2017-07-25T14:31:59.099Z,26.40
2017-07-25T14:34:26.571Z,26.40
2017-07-25T14:36:54.046Z,26.30
2017-07-25T14:39:21.527Z,26.30
2017-07-25T14:41:49.024Z,26.30
2017-07-25T14:44:16.524Z,26.20
2017-07-25T14:46:43.991Z,26.20
2017-07-25T14:49:11.461Z,26.20
2017-07-25T14:51:38.922Z,26.20
2017-07-25T14:54:06.383Z,26.20
2017-07-25T14:56:33.849Z,26.20
2017-07-25T14:59:01.402Z,26.20
2017-07-25T15:01:28.860Z,26.20
2017-07-25T15:03:56.323Z,26.30
2017-07-25T15:06:23.799Z,26.30
2017-07-25T15:08:51.267Z,26.30
2017-07-25T15:11:18.724Z,26.30
2017-07-25T15:13:46.234Z,26.30
2017-07-25T15:16:13.697Z,26.30
2017-07-25T15:18:41.460Z,26.30
2017-07-25T15:21:08.929Z,26.30
2017-07-25T15:23:36.467Z,26.30
2017-07-25T15:26:03.923Z,26.20
2017-07-25T15:28:31.392Z,26.20
2017-07-25T15:30:58.837Z,26.20
2017-07-25T15:33:26.312Z,26.30
2017-07-25T15:35:53.798Z,26.20
2017-07-25T15:38:21.270Z,26.20
2017-07-25T15:40:48.740Z,26.30
2017-07-25T15:43:16.205Z,26.30
2017-07-25T15:45:43.670Z,26.30
2017-07-25T15:48:11.127Z,26.30
2017-07-25T15:50:38.591Z,26.30
2017-07-25T15:53:06.051Z,26.30
2017-07-25T15:55:33.523Z,26.30
2017-07-25T15:58:01.259Z,26.20
2017-07-25T16:00:28.728Z,26.20
2017-07-25T16:02:56.202Z,26.30
2017-07-25T16:05:23.665Z,26.30
2017-07-25T16:07:51.120Z,26.30
2017-07-25T16:10:18.599Z,26.30
2017-07-25T16:12:46.059Z,26.30
2017-07-25T16:15:13.538Z,26.30
2017-07-25T16:17:41.016Z,26.40
2017-07-25T16:20:08.479Z,26.30
2017-07-25T16:22:35.938Z,26.40
2017-07-25T16:25:03.404Z,26.30
2017-07-25T16:27:30.877Z,26.30
2017-07-25T16:29:58.371Z,26.40
2017-07-25T16:32:26.606Z,26.50
2017-07-25T16:34:54.062Z,26.50
2017-07-25T16:37:21.526Z,26.50
2017-07-25T16:39:48.986Z,26.50
2017-07-25T16:42:16.485Z,26.60
2017-07-25T16:44:44.711Z,26.60
2017-07-25T16:47:12.171Z,26.60
2017-07-25T16:49:39.679Z,26.60
2017-07-25T16:52:07.163Z,26.60
2017-07-25T16:54:34.647Z,26.60
2017-07-25T16:57:02.138Z,26.60
2017-07-25T16:59:29.631Z,26.70
2017-07-25T17:01:57.099Z,26.60
2017-07-25T17:04:24.558Z,26.60
2017-07-25T17:06:52.018Z,26.60
2017-07-25T17:09:19.472Z,26.50
2017-07-25T17:11:46.928Z,26.70
2017-07-25T17:14:14.385Z,26.50
2017-07-25T17:16:41.853Z,26.50
2017-07-25T17:19:09.330Z,26.70
2017-07-25T17:21:36.845Z,27.00
2017-07-25T17:24:04.301Z,27.10
2017-07-25T17:26:31.768Z,27.20
2017-07-25T17:28:59.239Z,27.30
2017-07-25T17:31:26.705Z,27.30
2017-07-25T17:33:54.173Z,27.40
2017-07-25T17:36:21.659Z,27.40
2017-07-25T17:38:49.164Z,27.40
2017-07-25T17:41:17.202Z,27.50
2017-07-25T17:43:44.814Z,27.50
2017-07-25T17:46:12.282Z,27.50
2017-07-25T17:48:39.744Z,27.60
2017-07-25T17:51:07.202Z,27.60
2017-07-25T17:53:34.688Z,27.60
2017-07-25T17:56:02.162Z,27.60
2017-07-25T17:58:29.632Z,27.60
2017-07-25T18:00:57.092Z,27.60
2017-07-25T18:03:24.614Z,27.60
2017-07-25T18:05:52.099Z,27.60
2017-07-25T18:08:19.602Z,27.50
2017-07-25T18:10:47.071Z,27.60
2017-07-25T18:13:14.804Z,27.60
2017-07-25T18:15:42.277Z,27.50
2017-07-25T18:18:10.269Z,27.50
2017-07-25T18:20:37.835Z,27.50
2017-07-25T18:23:05.295Z,27.50
2017-07-25T18:25:33.777Z,27.50
2017-07-25T18:28:01.249Z,27.50
2017-07-25T18:30:28.721Z,27.50
2017-07-25T18:32:56.175Z,27.50
2017-07-25T18:35:23.649Z,27.50
2017-07-25T18:37:51.107Z,27.50
2017-07-25T18:40:18.568Z,27.50
2017-07-25T18:42:46.023Z,27.40
2017-07-25T18:45:13.550Z,27.50
2017-07-25T18:47:41.790Z,27.50
2017-07-25T18:50:09.279Z,27.50
2017-07-25T18:52:36.754Z,27.50
2017-07-25T18:55:04.223Z,27.40
2017-07-25T18:57:31.678Z,27.40
2017-07-25T18:59:59.179Z,27.40
2017-07-25T19:02:26.678Z,27.40
2017-07-25T19:04:54.126Z,27.40
2017-07-25T19:07:21.584Z,27.30
2017-07-25T19:09:49.050Z,27.30
2017-07-25T19:12:16.514Z,27.40
2017-07-25T19:14:43.970Z,27.30
2017-07-25T19:17:11.423Z,27.30
2017-07-25T19:19:38.891Z,27.30
2017-07-25T19:22:06.354Z,27.30
2017-07-25T19:24:33.831Z,27.30
2017-07-25T19:27:01.285Z,27.30
2017-07-25T19:29:28.786Z,27.20
2017-07-25T19:31:56.245Z,27.20
2017-07-25T19:34:23.707Z,27.20
2017-07-25T19:36:51.184Z,27.20
2017-07-25T19:39:18.667Z,27.20
2017-07-25T19:41:46.153Z,27.20
2017-07-25T19:44:13.600Z,27.20
2017-07-25T19:46:41.062Z,27.20
2017-07-25T19:49:08.527Z,27.20
2017-07-25T19:51:35.979Z,27.20
2017-07-25T19:54:03.435Z,27.10
2017-07-25T19:56:30.911Z,27.20
2017-07-25T19:58:58.390Z,27.10
2017-07-25T20:01:26.610Z,27.10
2017-07-25T20:03:54.066Z,27.10
2017-07-25T20:06:21.522Z,27.10
2017-07-25T20:08:48.984Z,27.10
2017-07-25T20:11:16.446Z,27.10
2017-07-25T20:13:43.904Z,27.10
2017-07-25T20:16:11.374Z,27.10
2017-07-25T20:18:38.842Z,27.10
2017-07-25T20:21:06.323Z,27.10
2017-07-25T20:23:33.769Z,27.10
2017-07-25T20:26:01.258Z,27.10
2017-07-25T20:28:28.722Z,27.10
2017-07-25T20:30:56.175Z,27.10
2017-07-25T20:33:23.649Z,27.10
2017-07-25T20:35:51.113Z,27.10
2017-07-25T20:38:18.584Z,27.10
2017-07-25T20:40:46.045Z,27.00
2017-07-25T20:43:13.503Z,26.80
2017-07-25T20:45:40.956Z,26.60
2017-07-25T20:48:08.423Z,26.50
2017-07-25T20:50:35.878Z,26.40
2017-07-25T20:53:03.353Z,26.30
2017-07-25T20:55:30.825Z,26.20
2017-07-25T20:57:58.310Z,26.10
2017-07-25T21:00:25.782Z,26.10
2017-07-25T21:02:53.239Z,26.00
2017-07-25T21:05:20.705Z,25.90
2017-07-25T21:07:48.152Z,25.90
2017-07-25T21:10:15.618Z,25.80
2017-07-25T21:12:43.075Z,25.80
2017-07-25T21:15:10.538Z,25.70
2017-07-25T21:17:38.057Z,25.70
2017-07-25T21:20:09.185Z,25.70
2017-07-25T21:22:36.764Z,25.60
2017-07-25T21:25:04.234Z,25.60
2017-07-25T21:27:31.689Z,25.50
2017-07-25T21:29:59.152Z,25.50
2017-07-25T21:32:26.613Z,25.50
2017-07-25T21:34:54.168Z,25.50
2017-07-25T21:37:21.606Z,25.40
2017-07-25T21:39:49.211Z,25.40
2017-07-25T21:42:16.666Z,25.40
2017-07-25T21:44:44.225Z,25.40
2017-07-25T21:47:11.706Z,25.40
2017-07-25T21:49:39.261Z,25.30
2017-07-25T21:52:06.762Z,25.30
2017-07-25T21:54:34.347Z,25.30
2017-07-25T21:57:01.793Z,25.20
2017-07-25T21:59:29.249Z,25.20
2017-07-25T22:02:08.394Z,25.20
2017-07-25T22:04:47.790Z,25.20
2017-07-25T22:07:15.260Z,25.10
2017-07-25T22:09:42.716Z,25.10
2017-07-25T22:12:10.930Z,25.00
2017-07-25T22:14:38.390Z,25.00
2017-07-25T22:17:05.838Z,25.00
2017-07-25T22:19:33.373Z,25.00
2017-07-25T22:22:01.237Z,25.00
2017-07-25T22:24:29.476Z,24.90
2017-07-25T22:26:56.922Z,24.90
2017-07-25T22:29:24.531Z,24.90
2017-07-25T22:31:52.019Z,24.90
2017-07-25T22:34:19.474Z,24.80
2017-07-25T22:36:46.944Z,24.80
2017-07-25T22:39:14.386Z,24.80
2017-07-25T22:41:41.841Z,24.80
2017-07-25T22:44:09.301Z,24.80
2017-07-25T22:46:36.761Z,24.70
2017-07-25T22:49:04.215Z,24.70
2017-07-25T22:51:31.674Z,24.70
2017-07-25T22:53:59.123Z,24.60
2017-07-25T22:56:26.572Z,24.60
2017-07-25T22:58:54.021Z,24.60
2017-07-25T23:01:21.478Z,24.60
2017-07-25T23:03:48.929Z,24.60
2017-07-25T23:06:16.412Z,24.60
2017-07-25T23:08:43.869Z,24.50
2017-07-25T23:11:11.339Z,24.50
2017-07-25T23:13:38.791Z,24.50
2017-07-25T23:16:06.250Z,24.50
2017-07-25T23:18:33.690Z,24.50
2017-07-25T23:21:01.156Z,24.40
2017-07-25T23:23:28.614Z,24.40
2017-07-25T23:25:56.061Z,24.40
2017-07-25T23:28:23.518Z,24.40
2017-07-25T23:30:50.970Z,24.40
2017-07-25T23:33:18.422Z,24.30
2017-07-25T23:35:45.899Z,24.30
2017-07-25T23:38:13.366Z,24.30
2017-07-25T23:40:40.828Z,24.20
2017-07-25T23:43:08.287Z,24.20
2017-07-25T23:45:35.736Z,24.20
2017-07-25T23:48:03.205Z,24.20
2017-07-25T23:50:30.654Z,24.20
2017-07-25T23:52:58.107Z,24.20
2017-07-25T23:55:25.565Z,24.20
2017-07-25T23:57:53.059Z,24.10
